TimeCDT,TemperatureF,Dew PointF,Humidity,Sea Level PressureIn,VisibilityMPH,Wind Direction,Wind SpeedMPH,Gust SpeedMPH,PrecipitationIn,Events,Conditions,WindDirDegrees,DateUTC
12:53 AM,41.0,35.1,79,30.11,10.0,SE,9.2,-,N/A,,Clear,140,2011-11-05 05:53:00
1:53 AM,41.0,37.0,86,30.09,10.0,SE,10.4,-,N/A,,Clear,140,2011-11-05 06:53:00
2:53 AM,41.0,37.9,89,30.09,10.0,SSE,8.1,-,N/A,,Clear,150,2011-11-05 07:53:00
4:53 AM,42.1,39.0,89,30.05,8.0,SSE,10.4,-,N/A,,Clear,160,2011-11-05 09:53:00
5:53 AM,41.0,39.0,93,30.05,7.0,SSE,8.1,-,N/A,,Clear,160,2011-11-05 10:53:00
6:21 AM,41.0,39.2,93,30.03,6.0,South,10.4,-,N/A,,Partly Cloudy,170,2011-11-05 11:21:00
6:39 AM,41.0,39.2,93,30.03,5.0,South,11.5,18.4,N/A,,Mostly Cloudy,170,2011-11-05 11:39:00
6:53 AM,41.0,39.0,93,30.05,5.0,SSE,13.8,19.6,N/A,,Overcast,160,2011-11-05 11:53:00
7:01 AM,41.0,39.2,93,30.03,5.0,South,12.7,19.6,N/A,,Overcast,170,2011-11-05 12:01:00
7:53 AM,41.0,39.9,96,30.05,4.0,South,13.8,18.4,N/A,,Overcast,170,2011-11-05 12:53:00
8:53 AM,42.1,41.0,96,30.04,4.0,South,12.7,20.7,N/A,,Overcast,170,2011-11-05 13:53:00
9:53 AM,44.1,41.0,89,30.04,5.0,South,15.0,21.9,N/A,,Overcast,170,2011-11-05 14:53:00
10:00 AM,44.6,42.8,93,30.02,5.0,South,11.5,23.0,N/A,,Overcast,170,2011-11-05 15:00:00
10:53 AM,46.0,42.1,86,30.03,7.0,SSE,13.8,24.2,N/A,,Overcast,160,2011-11-05 15:53:00
11:41 AM,46.4,42.8,87,30.00,9.0,SSE,15.0,24.2,N/A,,Overcast,160,2011-11-05 16:41:00
11:53 AM,46.9,42.1,83,30.01,9.0,South,12.7,20.7,N/A,,Overcast,170,2011-11-05 16:53:00
12:53 PM,48.9,43.0,80,29.98,10.0,SSE,15.0,20.7,N/A,,Overcast,150,2011-11-05 17:53:00
1:10 PM,50.0,42.8,76,29.95,10.0,SSE,15.0,21.9,N/A,,Mostly Cloudy,160,2011-11-05 18:10:00
1:53 PM,52.0,43.0,71,29.94,10.0,SSE,13.8,21.9,N/A,,Partly Cloudy,160,2011-11-05 18:53:00
3:53 PM,55.9,43.0,62,29.87,10.0,SSE,16.1,24.2,N/A,,Clear,160,2011-11-05 20:53:00
4:53 PM,55.0,44.1,67,29.85,10.0,SE,15.0,26.5,N/A,,Clear,140,2011-11-05 21:53:00
5:53 PM,52.0,43.0,71,29.85,10.0,SSE,13.8,24.2,N/A,,Clear,150,2011-11-05 22:53:00
6:53 PM,50.0,42.1,74,29.85,10.0,SE,12.7,-,N/A,,Clear,140,2011-11-05 23:53:00
7:53 PM,48.9,42.1,77,29.83,10.0,SE,12.7,-,N/A,,Clear,140,2011-11-06 00:53:00
8:53 PM,48.9,42.1,77,29.81,10.0,SE,13.8,-,N/A,,Clear,140,2011-11-06 01:53:00
9:53 PM,50.0,42.1,74,29.81,10.0,SSE,13.8,29.9,N/A,,Clear,160,2011-11-06 02:53:00
10:53 PM,48.9,42.1,77,29.81,10.0,South,17.3,26.5,N/A,,Clear,170,2011-11-06 03:53:00
11:53 PM,48.9,42.1,77,29.82,10.0,South,16.1,24.2,N/A,,Clear,170,2011-11-06 04:53:00